createdAt,value
2018-02-14T00:01:05.448Z,9.82
2018-02-14T00:04:08.736Z,7.68
2018-02-14T00:07:12.008Z,8.37
2018-02-14T00:10:26.880Z,12.75
2018-02-14T00:13:31.260Z,7.25
2018-02-14T00:16:34.525Z,7.50
2018-02-14T00:19:37.890Z,7.83
2018-02-14T00:22:50.647Z,14.82
2018-02-14T00:25:55.870Z,5.83
2018-02-14T00:28:59.265Z,5.37
2018-02-14T00:32:02.538Z,6.03
2018-02-14T00:35:06.671Z,8.10
2018-02-14T00:38:09.934Z,6.77
2018-02-14T00:41:13.972Z,6.03
2018-02-14T00:44:18.310Z,9.03
2018-02-14T00:47:21.665Z,11.93
2018-02-14T00:50:25.033Z,6.85
2018-02-14T00:53:28.305Z,5.93
2018-02-14T00:56:32.502Z,8.23
2018-02-14T00:59:36.544Z,9.77
2018-02-14T01:02:39.804Z,6.40
2018-02-14T01:05:43.167Z,6.62
2018-02-14T01:08:46.446Z,8.90
2018-02-14T01:11:49.722Z,6.87
2018-02-14T01:14:53.753Z,6.83
2018-02-14T01:17:57.025Z,8.67
2018-02-14T01:21:01.309Z,7.47
2018-02-14T01:24:04.681Z,14.47
2018-02-14T01:27:07.972Z,9.38
2018-02-14T01:30:11.253Z,5.30
2018-02-14T01:33:15.312Z,7.33
2018-02-14T01:36:18.591Z,10.47
2018-02-14T01:39:21.860Z,12.67
2018-02-14T01:42:25.155Z,6.73
2018-02-14T01:45:28.431Z,8.37
2018-02-14T01:48:31.729Z,8.30
2018-02-14T01:51:35.035Z,11.50
2018-02-14T01:54:39.095Z,7.37
2018-02-14T01:57:42.532Z,8.20
2018-02-14T02:00:45.824Z,5.77
2018-02-14T02:03:49.151Z,6.77
2018-02-14T02:06:53.188Z,5.77
2018-02-14T02:09:56.484Z,6.60
2018-02-14T02:12:59.760Z,5.20
2018-02-14T02:16:05.427Z,8.47
2018-02-14T02:19:08.689Z,8.48
2018-02-14T02:22:11.974Z,5.32
2018-02-14T02:25:15.259Z,3.80
2018-02-14T02:28:18.539Z,6.10
2018-02-14T02:31:21.807Z,4.20
2018-02-14T02:34:25.839Z,5.93
2018-02-14T02:37:29.114Z,4.22
2018-02-14T02:40:33.148Z,4.37
2018-02-14T02:43:36.424Z,8.57
2018-02-14T02:46:40.505Z,6.60
2018-02-14T02:49:43.777Z,10.90
2018-02-14T02:52:47.155Z,6.17
2018-02-14T02:55:50.490Z,4.73
2018-02-14T02:58:53.865Z,7.07
2018-02-14T03:01:57.416Z,6.23
2018-02-14T03:05:00.698Z,6.63
2018-02-14T03:08:03.973Z,8.03
2018-02-14T03:11:07.262Z,4.78
2018-02-14T03:14:10.558Z,6.47
2018-02-14T03:17:13.813Z,4.70
2018-02-14T03:20:17.855Z,6.78
2018-02-14T03:23:21.120Z,5.35
2018-02-14T03:26:24.408Z,6.33
2018-02-14T03:29:27.908Z,2.43
2018-02-14T03:32:31.196Z,3.30
2018-02-14T03:35:34.541Z,4.13
2018-02-14T03:38:38.715Z,6.27
2018-02-14T03:41:42.795Z,4.43
2018-02-14T03:44:46.176Z,5.07
2018-02-14T03:47:50.213Z,8.57
2018-02-14T03:50:53.487Z,6.62
2018-02-14T03:53:56.761Z,5.28
2018-02-14T03:57:00.039Z,3.40
2018-02-14T04:00:03.435Z,2.83
2018-02-14T04:03:06.779Z,3.87
2018-02-14T04:06:10.052Z,6.40
2018-02-14T04:09:13.324Z,10.43
2018-02-14T04:12:16.590Z,4.40
2018-02-14T04:15:19.855Z,9.80
2018-02-14T04:18:24.516Z,2.93
2018-02-14T04:21:27.811Z,5.28
2018-02-14T04:24:31.071Z,3.97
2018-02-14T04:27:34.398Z,1.93
2018-02-14T04:30:39.687Z,4.17
2018-02-14T04:33:42.952Z,3.73
2018-02-14T04:36:47.314Z,4.03
2018-02-14T04:39:50.651Z,3.50
2018-02-14T04:42:54.696Z,3.57
2018-02-14T04:45:58.012Z,3.53
2018-02-14T04:49:01.292Z,4.37
2018-02-14T04:52:04.590Z,5.53
2018-02-14T04:55:07.867Z,5.90
2018-02-14T04:58:11.163Z,3.77
2018-02-14T05:01:14.474Z,3.55
2018-02-14T05:04:17.769Z,2.30
2018-02-14T05:07:21.060Z,2.87
2018-02-14T05:10:24.342Z,3.03
2018-02-14T05:13:28.381Z,3.87
2018-02-14T05:16:31.674Z,4.33
2018-02-14T05:19:34.972Z,2.08
2018-02-14T05:22:38.249Z,3.93
2018-02-14T05:25:42.289Z,4.33
2018-02-14T05:28:45.574Z,3.65
2018-02-14T05:31:48.968Z,3.10
2018-02-14T05:34:53.024Z,3.93
2018-02-14T05:37:56.317Z,3.00
2018-02-14T05:40:59.738Z,6.75
2018-02-14T05:44:03.230Z,5.70
2018-02-14T05:47:06.513Z,4.93
2018-02-14T05:50:09.800Z,2.40
2018-02-14T05:53:13.208Z,5.73
2018-02-14T05:56:16.479Z,2.70
2018-02-14T05:59:19.740Z,1.40
2018-02-14T06:02:23.019Z,8.70
2018-02-14T06:05:26.279Z,1.97
2018-02-14T06:08:29.763Z,1.80
2018-02-14T06:11:33.811Z,2.92
2018-02-14T06:14:37.084Z,3.23
2018-02-14T06:17:40.403Z,2.50
2018-02-14T06:20:43.680Z,1.13
2018-02-14T06:23:47.021Z,1.77
2018-02-14T06:26:50.302Z,12.03
2018-02-14T06:29:53.672Z,11.00
2018-02-14T06:32:56.969Z,7.93
2018-02-14T06:36:00.758Z,5.40
2018-02-14T06:39:04.905Z,2.93
2018-02-14T06:42:08.318Z,4.43
2018-02-14T06:45:11.581Z,1.73
2018-02-14T06:48:15.687Z,3.70
2018-02-14T06:51:19.791Z,1.48
2018-02-14T06:54:23.072Z,24.33
2018-02-14T06:57:26.352Z,2.67
2018-02-14T07:00:29.732Z,3.33
2018-02-14T07:03:33.004Z,3.73
2018-02-14T07:06:37.070Z,3.67
2018-02-14T07:09:40.451Z,10.45
2018-02-14T07:12:43.760Z,4.50
2018-02-14T07:15:47.028Z,4.67
2018-02-14T07:18:50.300Z,3.28
2018-02-14T07:21:53.893Z,6.15
2018-02-14T07:24:57.164Z,13.10
2018-02-14T07:28:00.428Z,7.30
2018-02-14T07:31:03.852Z,5.97
2018-02-14T07:34:07.145Z,6.20
2018-02-14T07:37:10.540Z,2.37
2018-02-14T07:40:14.053Z,2.30
2018-02-14T07:43:17.430Z,2.97
2018-02-14T07:46:20.749Z,4.70
2018-02-14T07:49:25.536Z,3.80
2018-02-14T07:52:29.473Z,2.83
2018-02-14T07:55:32.916Z,9.93
2018-02-14T07:58:36.262Z,5.50
2018-02-14T08:01:39.571Z,6.43
2018-02-14T08:04:43.656Z,4.20
2018-02-14T08:07:48.838Z,4.68
2018-02-14T08:10:52.205Z,2.83
2018-02-14T08:13:55.473Z,2.67
2018-02-14T08:16:59.696Z,2.65
2018-02-14T08:20:03.132Z,5.70
2018-02-14T08:23:07.247Z,3.33
2018-02-14T08:26:11.286Z,7.57
2018-02-14T08:29:14.557Z,5.30
2018-02-14T08:32:18.625Z,5.78
2018-02-14T08:35:21.988Z,6.97
2018-02-14T08:38:25.293Z,2.90
2018-02-14T08:41:28.592Z,3.47
2018-02-14T08:44:31.889Z,4.60
2018-02-14T08:47:35.930Z,1.70
2018-02-14T08:50:39.300Z,2.40
2018-02-14T08:53:43.347Z,1.98
2018-02-14T08:56:46.643Z,2.20
2018-02-14T08:59:49.968Z,8.37
2018-02-14T09:02:54.169Z,2.93
2018-02-14T09:05:57.397Z,5.77
2018-02-14T09:09:00.684Z,3.07
2018-02-14T09:12:04.136Z,2.37
2018-02-14T09:15:08.341Z,6.40
2018-02-14T09:18:12.386Z,3.37
2018-02-14T09:21:15.661Z,3.43
2018-02-14T09:24:21.743Z,2.83
2018-02-14T09:27:25.073Z,4.35
2018-02-14T09:30:28.480Z,6.30
2018-02-14T09:33:31.774Z,3.65
2018-02-14T09:36:35.336Z,4.80
2018-02-14T09:39:38.682Z,3.80
2018-02-14T09:42:41.975Z,3.93
2018-02-14T09:45:45.234Z,4.27
2018-02-14T09:48:48.513Z,3.93
2018-02-14T09:51:52.572Z,4.20
2018-02-14T09:54:55.856Z,2.00
2018-02-14T09:57:59.175Z,4.20
2018-02-14T10:01:02.501Z,3.40
2018-02-14T10:04:05.809Z,4.43
2018-02-14T10:07:09.274Z,4.80
2018-02-14T10:10:12.559Z,2.43
2018-02-14T10:13:16.599Z,3.10
2018-02-14T10:16:19.932Z,3.23
2018-02-14T10:19:24.004Z,6.50
2018-02-14T10:22:28.106Z,7.28
2018-02-14T10:25:32.170Z,3.60
2018-02-14T10:28:35.440Z,3.93
2018-02-14T10:31:38.732Z,4.18
2018-02-14T10:34:42.041Z,2.93
2018-02-14T10:37:45.832Z,3.80
2018-02-14T10:40:49.945Z,2.60
2018-02-14T10:43:53.976Z,5.27
2018-02-14T10:46:57.276Z,2.30
2018-02-14T10:50:04.878Z,3.33
2018-02-14T10:53:08.190Z,3.80
2018-02-14T10:56:11.520Z,2.60
2018-02-14T10:59:15.672Z,3.23
2018-02-14T11:02:18.937Z,3.03
2018-02-14T11:05:28.939Z,2.17
2018-02-14T11:08:32.236Z,3.27
2018-02-14T11:11:35.585Z,3.40
2018-02-14T11:14:38.864Z,3.58
2018-02-14T11:17:42.168Z,3.43
2018-02-14T11:20:45.494Z,2.20
2018-02-14T11:23:48.764Z,3.03
2018-02-14T11:26:52.310Z,5.27
2018-02-14T11:29:55.667Z,4.73
2018-02-14T11:32:59.524Z,10.70
2018-02-14T11:36:03.040Z,5.10
2018-02-14T11:39:06.345Z,2.93
2018-02-14T11:42:09.742Z,2.90
2018-02-14T11:45:13.020Z,4.35
2018-02-14T11:48:17.129Z,2.27
2018-02-14T11:51:20.497Z,6.10
2018-02-14T11:54:24.257Z,4.40
2018-02-14T11:57:27.534Z,2.53
2018-02-14T12:00:31.584Z,3.60
2018-02-14T12:03:34.871Z,2.47
2018-02-14T12:06:38.172Z,5.00
2018-02-14T12:09:41.773Z,4.95
2018-02-14T12:12:45.452Z,4.80
2018-02-14T12:15:49.514Z,7.17
2018-02-14T12:18:54.260Z,4.53
2018-02-14T12:21:57.560Z,2.97
2018-02-14T12:25:00.970Z,3.67
2018-02-14T12:28:04.462Z,2.87
2018-02-14T12:31:07.767Z,3.47
2018-02-14T12:34:11.104Z,6.10
2018-02-14T12:37:15.146Z,4.60
2018-02-14T12:40:18.427Z,8.80
2018-02-14T12:43:21.724Z,8.47
2018-02-14T12:46:26.060Z,10.27
2018-02-14T12:49:30.181Z,7.82
2018-02-14T12:52:33.769Z,7.50
2018-02-14T12:55:37.093Z,3.80
2018-02-14T12:58:40.344Z,3.53
2018-02-14T13:01:44.385Z,4.47
2018-02-14T13:04:47.660Z,6.97
2018-02-14T13:07:50.917Z,5.80
2018-02-14T13:10:54.271Z,5.80
2018-02-14T13:13:58.317Z,6.57
2018-02-14T13:17:01.576Z,7.50
2018-02-14T13:20:05.961Z,6.00
2018-02-14T13:23:09.243Z,5.73
2018-02-14T13:26:12.496Z,8.07
2018-02-14T13:29:16.523Z,7.30
2018-02-14T13:32:20.705Z,7.90
2018-02-14T13:35:23.977Z,7.17
2018-02-14T13:38:27.262Z,5.62
2018-02-14T13:41:30.542Z,7.85
2018-02-14T13:44:33.851Z,7.50
2018-02-14T13:47:37.178Z,7.80
2018-02-14T13:50:40.454Z,10.32
2018-02-14T13:53:43.817Z,7.67
2018-02-14T13:56:47.840Z,6.00
2018-02-14T13:59:51.961Z,9.03
2018-02-14T14:02:55.250Z,6.80
2018-02-14T14:05:59.272Z,8.37
2018-02-14T14:09:02.735Z,8.60
2018-02-14T14:12:06.173Z,7.20
2018-02-14T14:15:09.470Z,7.00
2018-02-14T14:18:12.758Z,9.97
2018-02-14T14:21:16.084Z,7.68
2018-02-14T14:24:19.346Z,7.77
2018-02-14T14:27:23.379Z,8.37
2018-02-14T14:30:28.122Z,7.10
2018-02-14T14:33:31.421Z,8.07
2018-02-14T14:36:34.858Z,7.43
2018-02-14T14:39:38.162Z,7.43
2018-02-14T14:42:41.430Z,6.73
2018-02-14T14:45:44.704Z,8.52
2018-02-14T14:48:48.021Z,9.77
2018-02-14T14:51:52.071Z,6.53
2018-02-14T14:54:55.355Z,7.37
2018-02-14T14:57:58.610Z,7.17
2018-02-14T15:01:01.912Z,8.93
2018-02-14T15:04:05.308Z,7.30
2018-02-14T15:07:08.730Z,13.80
2018-02-14T15:10:12.116Z,9.40
2018-02-14T15:13:15.604Z,6.28
2018-02-14T15:16:19.644Z,6.63
2018-02-14T15:19:22.958Z,7.20
2018-02-14T15:22:26.234Z,7.33
2018-02-14T15:25:29.501Z,6.78
2018-02-14T15:28:33.612Z,9.05
2018-02-14T15:31:36.891Z,9.03
2018-02-14T15:34:40.156Z,6.67
2018-02-14T15:37:43.477Z,6.27
2018-02-14T15:40:46.741Z,9.87
2018-02-14T15:43:50.069Z,8.10
2018-02-14T15:46:53.376Z,11.27
2018-02-14T15:49:56.644Z,12.33
2018-02-14T15:53:00.136Z,9.67
2018-02-14T15:56:03.424Z,13.48
2018-02-14T15:59:06.834Z,10.47
2018-02-14T16:02:10.145Z,11.43
2018-02-14T16:05:13.540Z,10.10
2018-02-14T16:08:16.909Z,12.27
2018-02-14T16:11:21.372Z,15.27
2018-02-14T16:14:24.700Z,12.77
2018-02-14T16:17:28.345Z,14.93
2018-02-14T16:20:32.377Z,13.10
2018-02-14T16:23:35.658Z,11.50
2018-02-14T16:26:38.977Z,17.67
2018-02-14T16:29:42.304Z,11.50
2018-02-14T16:32:45.580Z,14.35
2018-02-14T16:35:48.974Z,11.23
2018-02-14T16:38:52.263Z,13.73
2018-02-14T16:41:55.584Z,14.27
2018-02-14T16:44:58.973Z,17.80
2018-02-14T16:48:02.260Z,16.30
2018-02-14T16:51:05.586Z,13.05
2018-02-14T16:54:08.856Z,18.67
2018-02-14T16:57:12.150Z,12.83
2018-02-14T17:00:15.450Z,18.03
2018-02-14T17:03:18.745Z,15.07
2018-02-14T17:06:22.991Z,13.30
2018-02-14T17:09:28.295Z,16.27
2018-02-14T17:12:31.917Z,14.70
2018-02-14T17:15:35.440Z,14.40
2018-02-14T17:18:39.512Z,15.75
2018-02-14T17:21:44.034Z,16.10
2018-02-14T17:24:48.129Z,24.07
2018-02-14T17:27:51.385Z,17.80
2018-02-14T17:30:54.656Z,19.55
2018-02-14T17:33:58.704Z,19.13
2018-02-14T17:37:01.986Z,14.50
2018-02-14T17:40:06.771Z,13.97
2018-02-14T17:43:10.057Z,15.67
2018-02-14T17:46:13.827Z,23.83
2018-02-14T17:49:17.418Z,19.50
2018-02-14T17:52:21.439Z,22.60
2018-02-14T17:55:24.736Z,18.00
2018-02-14T17:58:28.013Z,21.80
2018-02-14T18:01:33.312Z,19.63
2018-02-14T18:04:36.797Z,17.05
2018-02-14T18:07:40.126Z,20.67
2018-02-14T18:10:44.721Z,23.90
2018-02-14T18:13:48.032Z,21.40
2018-02-14T18:16:51.320Z,24.27
2018-02-14T18:19:55.579Z,28.50
2018-02-14T18:22:59.197Z,19.77
2018-02-14T18:26:03.188Z,25.42
2018-02-14T18:29:06.479Z,29.97
2018-02-14T18:32:09.825Z,25.60
2018-02-14T18:35:13.861Z,21.50
2018-02-14T18:38:17.138Z,19.87
2018-02-14T18:41:21.194Z,23.10
2018-02-14T18:44:24.482Z,18.13
2018-02-14T18:47:27.766Z,22.87
2018-02-14T18:50:31.058Z,27.13
2018-02-14T18:53:34.373Z,19.53
2018-02-14T18:56:37.674Z,17.77
2018-02-14T18:59:41.114Z,16.37
2018-02-14T19:02:44.500Z,14.10
2018-02-14T19:05:47.858Z,20.10
2018-02-14T19:08:51.192Z,18.50
2018-02-14T19:11:54.579Z,17.73
2018-02-14T19:14:57.848Z,20.27
2018-02-14T19:18:01.145Z,19.67
2018-02-14T19:21:04.587Z,17.05
2018-02-14T19:24:07.917Z,19.83
2018-02-14T19:27:11.993Z,18.60
2018-02-14T19:30:15.342Z,20.30
2018-02-14T19:33:19.393Z,24.00
2018-02-14T19:36:23.554Z,25.40
2018-02-14T19:39:27.622Z,21.70
2018-02-14T19:42:30.921Z,19.83
2018-02-14T19:45:36.151Z,26.04
2018-02-14T19:48:39.463Z,17.75
2018-02-14T19:51:42.764Z,17.40
2018-02-14T19:54:46.049Z,22.03
2018-02-14T19:57:49.873Z,21.23
2018-02-14T20:00:54.242Z,21.50
2018-02-14T20:03:57.532Z,17.97
2018-02-14T20:07:00.824Z,17.73
2018-02-14T20:10:05.213Z,17.40
2018-02-14T20:13:08.505Z,19.00
2018-02-14T20:16:11.796Z,18.30
2018-02-14T20:19:15.087Z,14.23
2018-02-14T20:22:18.417Z,18.80
2018-02-14T20:25:21.683Z,18.87
2018-02-14T20:28:24.972Z,19.47
2018-02-14T20:31:29.018Z,20.47
2018-02-14T20:34:32.328Z,19.67
2018-02-14T20:37:36.701Z,17.20
2018-02-14T20:40:40.742Z,28.23
2018-02-14T20:43:44.021Z,26.13
2018-02-14T20:46:48.110Z,18.20
2018-02-14T20:49:51.367Z,21.37
2018-02-14T20:52:54.688Z,16.23
2018-02-14T20:55:57.977Z,18.40
2018-02-14T20:59:01.268Z,18.05
2018-02-14T21:02:04.550Z,14.97
2018-02-14T21:05:07.841Z,12.77
2018-02-14T21:08:11.132Z,16.83
2018-02-14T21:11:14.449Z,14.20
2018-02-14T21:14:17.720Z,17.87
2018-02-14T21:17:21.018Z,13.70
2018-02-14T21:20:24.305Z,15.60
2018-02-14T21:23:28.348Z,10.87
2018-02-14T21:26:31.612Z,10.93
2018-02-14T21:29:35.753Z,18.93
2018-02-14T21:32:39.082Z,13.70
2018-02-14T21:35:42.370Z,11.18
2018-02-14T21:38:45.640Z,10.67
2018-02-14T21:41:48.924Z,18.40
2018-02-14T21:44:52.973Z,11.87
2018-02-14T21:47:56.245Z,16.07
2018-02-14T21:51:00.318Z,10.83
2018-02-14T21:54:03.589Z,16.13
2018-02-14T21:57:06.869Z,10.18
2018-02-14T22:00:10.150Z,9.67
2018-02-14T22:03:14.251Z,9.80
2018-02-14T22:06:17.553Z,9.03
2018-02-14T22:09:21.596Z,13.40
2018-02-14T22:12:24.869Z,5.37
2018-02-14T22:15:28.917Z,9.00
2018-02-14T22:18:32.180Z,8.07
2018-02-14T22:21:36.317Z,7.77
2018-02-14T22:24:43.822Z,8.40
2018-02-14T22:27:47.120Z,7.97
2018-02-14T22:30:51.088Z,10.60
2018-02-14T22:33:54.368Z,6.77
2018-02-14T22:36:57.653Z,10.63
2018-02-14T22:40:01.693Z,6.23
2018-02-14T22:43:04.959Z,10.03
2018-02-14T22:46:08.244Z,7.63
2018-02-14T22:49:11.550Z,13.43
2018-02-14T22:52:14.850Z,7.85
2018-02-14T22:55:18.152Z,13.40
2018-02-14T22:58:22.032Z,8.03
2018-02-14T23:01:25.309Z,7.77
2018-02-14T23:04:29.336Z,9.73
2018-02-14T23:07:33.386Z,4.47
2018-02-14T23:10:36.649Z,7.83
2018-02-14T23:13:41.973Z,6.20
2018-02-14T23:16:45.260Z,5.93
2018-02-14T23:19:48.533Z,8.57
2018-02-14T23:22:51.829Z,10.43
2018-02-14T23:25:55.119Z,7.20
2018-02-14T23:28:58.481Z,6.23
2018-02-14T23:32:02.530Z,7.97
2018-02-14T23:35:05.837Z,5.77
2018-02-14T23:38:09.915Z,8.40
2018-02-14T23:41:13.952Z,16.80
2018-02-14T23:44:18.306Z,10.73
2018-02-14T23:47:21.583Z,6.28
2018-02-14T23:50:24.866Z,8.33
2018-02-14T23:53:28.139Z,7.03
2018-02-14T23:56:32.179Z,10.63
2018-02-14T23:59:35.491Z,5.40
